Terminal Aerodrome Forecast
Issued by NWS

Home | Current Version | Previous Version | Text Only | Print | Product List | Glossary On
Versions: 1 2 3 4 5 6 7 8 9 10 11 12 13 14 15 16 17 18 19
437
FTUS46 KEKA 271720
TAFCEC
TAF
KCEC 271720Z 2718/2818 19006KT P6SM OVC015
     FM280000 VRB03KT P6SM OVC010
     FM280300 00000KT 3SM BR OVC005
     FM281200 00000KT 1/2SM FG VV002
     FM281700 VRB04KT 3SM BR BKN008=

USA.gov is the U.S. government's official web portal to all federal, state and local government web resources and services.